Terminal Aerodrome Forecast
Issued by NWS Cleveland, OH

Home | Current Version | Previous Version | Graphics & Text | Print | Product List | Glossary Off
Versions: 1 2 3 4 5 6 7 8 9 10 11 12 13 14 15 16 17 18 19 20 21 22 23 24 25 26 27 28 29 30 31 32 33 34

000
FTUS41 KCLE 210200 AAA
TAFCLE
TAF AMD
KCLE 210252Z 2103/2206 24003KT P6SM SKC
     FM210900 21003KT 4SM BR BKN150
     FM211400 22005KT P6SM VCSH BKN070
     FM211800 24010KT P6SM BKN035
      TEMPO 2119/2122 3SM TSRA OVC025CB=

USA.gov is the U.S. government's official web portal to all federal, state and local government web resources and services.